Time;durP1;ratioP1;P1;durP2;ratioP2;P2;SDS_P1;SDS_P2;PMS_P1;PMS_P2;Temp;Humidity;BMP_temperature;BMP_pressure;BME280_temperature;BME280_humidity;BME280_pressure;Samples;Min_cycle;Max_cycle;Signal;HPM_P1;HPM_P2
2022/06/10 00:00:46;;;;;;;4.70;2.13;;;15.30;99.90;;;;;;5031368;28;20504;-75
2022/06/10 00:03:13;;;;;;;4.60;1.83;;;15.30;99.90;;;;;;5024649;28;20025;-75
2022/06/10 00:05:41;;;;;;;3.25;1.50;;;15.30;99.90;;;;;;5002948;28;20112;-75
2022/06/10 00:08:13;;;;;;;3.40;1.53;;;15.30;99.90;;;;;;5013245;28;20033;-75
2022/06/10 00:10:39;;;;;;;4.70;1.90;;;15.30;99.90;;;;;;5016326;28;20040;-74
2022/06/10 00:13:05;;;;;;;3.50;1.70;;;15.30;99.90;;;;;;5014189;28;20041;-75
2022/06/10 00:15:32;;;;;;;2.38;1.30;;;15.30;99.90;;;;;;5022088;28;20037;-74
2022/06/10 00:17:58;;;;;;;3.35;1.60;;;15.30;99.90;;;;;;5013128;28;20104;-76
2022/06/10 00:20:27;;;;;;;1.77;1.40;;;15.40;99.90;;;;;;5023924;28;20053;-75
2022/06/10 00:22:53;;;;;;;6.88;2.05;;;15.30;99.90;;;;;;5023309;28;20337;-75
2022/06/10 00:25:20;;;;;;;3.47;1.73;;;15.30;99.90;;;;;;5012247;28;20120;-75
2022/06/10 00:27:47;;;;;;;2.28;1.67;;;15.40;99.90;;;;;;5027726;28;20036;-75
2022/06/10 00:30:14;;;;;;;2.25;1.17;;;15.30;99.90;;;;;;5013931;28;20044;-75
2022/06/10 00:32:40;;;;;;;2.30;1.08;;;15.30;99.90;;;;;;5024187;28;20029;-76
2022/06/10 00:35:07;;;;;;;4.10;1.60;;;15.30;99.90;;;;;;5018524;28;20091;-75
2022/06/10 00:37:32;;;;;;;3.17;1.38;;;15.40;99.90;;;;;;5022735;28;20044;-74
2022/06/10 00:39:58;;;;;;;5.53;1.55;;;15.40;99.90;;;;;;5016231;28;20029;-74
2022/06/10 00:42:24;;;;;;;3.38;1.40;;;15.30;99.90;;;;;;5002224;28;20033;-74
2022/06/10 00:44:53;;;;;;;3.90;1.80;;;15.30;99.90;;;;;;5004288;28;20083;-74
2022/06/10 00:47:24;;;;;;;3.50;1.50;;;15.30;99.90;;;;;;5019353;28;20080;-75
2022/06/10 00:50:13;;;;;;;4.40;1.67;;;15.30;99.90;;;;;;5014798;28;20392;-75
2022/06/10 00:52:44;;;;;;;4.57;1.60;;;15.30;99.90;;;;;;5011890;28;20433;-74
2022/06/10 00:55:10;;;;;;;6.00;2.30;;;15.30;99.90;;;;;;5017378;28;20511;-75
2022/06/10 00:57:40;;;;;;;5.63;2.45;;;15.30;99.90;;;;;;5021553;28;20041;-75
2022/06/10 01:00:15;;;;;;;7.18;3.10;;;15.30;99.90;;;;;;5036965;28;20037;-75
2022/06/10 01:02:42;;;;;;;5.13;3.40;;;15.20;99.90;;;;;;5002268;28;20475;-75
2022/06/10 01:05:15;;;;;;;10.73;3.95;;;15.20;99.90;;;;;;5016908;28;20158;-76
2022/06/10 01:07:50;;;;;;;8.93;3.53;;;15.20;99.90;;;;;;5022859;28;20546;-75
2022/06/10 01:10:18;;;;;;;8.05;3.55;;;15.20;99.90;;;;;;5007419;28;20208;-75
2022/06/10 01:12:56;;;;;;;11.68;4.35;;;15.20;99.90;;;;;;5009522;28;20128;-75
2022/06/10 01:15:27;;;;;;;11.35;3.85;;;15.20;99.90;;;;;;5007202;28;20411;-74
2022/06/10 01:18:10;;;;;;;8.88;4.15;;;15.20;99.90;;;;;;5010224;28;20036;-75
2022/06/10 01:20:49;;;;;;;8.20;2.78;;;15.20;99.90;;;;;;5007281;28;20042;-76
2022/06/10 01:23:39;;;;;;;6.05;2.78;;;15.20;99.90;;;;;;5016528;28;20301;-76
2022/06/10 01:26:26;;;;;;;7.80;3.67;;;15.20;99.90;;;;;;5018249;28;20029;-75
2022/06/10 01:29:25;;;;;;;8.88;3.00;;;15.20;99.90;;;;;;5004691;28;20484;-73
2022/06/10 01:31:58;;;;;;;4.03;2.10;;;15.20;99.90;;;;;;5023493;28;20052;-74
2022/06/10 01:34:45;;;;;;;3.05;1.83;;;15.20;99.90;;;;;;5017370;28;20045;-74
2022/06/10 01:37:22;;;;;;;3.28;2.00;;;15.30;99.90;;;;;;5011695;28;20044;-74
2022/06/10 01:39:56;;;;;;;3.00;1.70;;;15.20;99.90;;;;;;5021653;28;20087;-74
2022/06/10 01:42:41;;;;;;;3.95;1.90;;;15.30;99.90;;;;;;5018611;28;20504;-74
2022/06/10 01:45:22;;;;;;;6.43;1.70;;;15.30;99.90;;;;;;5015915;28;20354;-74
2022/06/10 01:48:08;;;;;;;2.95;1.80;;;15.30;99.90;;;;;;5022949;28;20262;-73
2022/06/10 01:50:54;;;;;;;4.20;1.83;;;15.30;99.90;;;;;;5019425;28;20127;-74
2022/06/10 01:53:30;;;;;;;10.45;3.10;;;15.30;99.90;;;;;;5027284;28;20133;-73
2022/06/10 01:56:03;;;;;;;10.85;3.40;;;15.30;99.90;;;;;;5009663;28;20042;-73
2022/06/10 01:58:31;;;;;;;20.35;4.65;;;15.30;99.90;;;;;;5026216;28;20021;-73
2022/06/10 02:01:02;;;;;;;11.00;4.80;;;15.30;99.90;;;;;;5015437;28;20037;-74
2022/06/10 02:03:36;;;;;;;19.77;5.30;;;15.20;99.90;;;;;;5016451;28;20798;-73
2022/06/10 02:06:14;;;;;;;21.95;5.70;;;15.20;99.90;;;;;;5016151;28;20084;-73
2022/06/10 02:09:11;;;;;;;23.50;7.70;;;15.20;99.90;;;;;;4995700;28;20055;-73
2022/06/10 02:11:41;;;;;;;20.02;5.63;;;15.10;99.90;;;;;;5004320;28;20102;-73
2022/06/10 02:14:15;;;;;;;27.38;7.45;;;15.10;99.90;;;;;;5018557;28;20108;-73
2022/06/10 02:16:45;;;;;;;29.88;7.25;;;15.10;99.90;;;;;;5004387;28;20049;-73
2022/06/10 02:19:21;;;;;;;20.50;6.68;;;15.10;99.90;;;;;;5027525;28;20476;-73
2022/06/10 02:21:57;;;;;;;29.23;6.78;;;15.00;99.90;;;;;;5016679;28;21963;-73
2022/06/10 02:24:40;;;;;;;32.65;7.70;;;15.00;99.90;;;;;;5008943;28;20034;-74
2022/06/10 02:27:20;;;;;;;31.40;6.97;;;15.00;99.90;;;;;;5009882;28;20104;-73
2022/06/10 02:30:00;;;;;;;30.98;7.30;;;15.00;99.90;;;;;;5006802;28;20644;-73
2022/06/10 02:32:26;;;;;;;30.92;8.23;;;15.00;99.90;;;;;;5025100;28;20064;-73
2022/06/10 02:34:53;;;;;;;34.65;7.82;;;15.00;99.90;;;;;;5016630;28;20075;-73
2022/06/10 02:37:34;;;;;;;34.70;7.88;;;15.00;99.90;;;;;;5013913;28;20039;-73
2022/06/10 02:40:21;;;;;;;28.43;7.00;;;15.00;99.90;;;;;;5002784;28;20030;-73
2022/06/10 02:43:05;;;;;;;31.05;7.63;;;15.00;99.90;;;;;;5008877;28;20033;-72
2022/06/10 02:45:50;;;;;;;26.80;6.78;;;15.00;99.90;;;;;;5008691;28;20095;-73
2022/06/10 02:48:51;;;;;;;28.35;7.88;;;15.00;99.90;;;;;;5001792;28;20040;-73
2022/06/10 02:51:19;;;;;;;34.27;8.10;;;15.00;99.90;;;;;;5016449;28;20029;-72
2022/06/10 02:53:45;;;;;;;30.75;8.70;;;14.90;99.90;;;;;;5029835;28;20296;-72
2022/06/10 02:56:20;;;;;;;31.70;7.65;;;14.90;99.90;;;;;;5018137;28;20544;-73
2022/06/10 03:02:04;;;;;;;28.42;7.85;;;14.90;99.90;;;;;;5014935;28;20039;-73
2022/06/10 03:04:44;;;;;;;36.65;8.45;;;14.90;99.90;;;;;;5017846;28;20485;-72
2022/06/10 03:07:36;;;;;;;25.83;8.18;;;15.00;99.90;;;;;;5008764;28;20038;-73
2022/06/10 03:10:04;;;;;;;;;;;15.00;99.90;;;;;;5001594;28;20041;-72
2022/06/10 03:12:42;;;;;;;34.47;8.18;;;14.90;99.90;;;;;;5009581;28;20383;-73
2022/06/10 03:15:21;;;;;;;35.28;7.80;;;14.90;99.90;;;;;;5009020;28;20026;-72
2022/06/10 03:17:58;;;;;;;34.58;7.78;;;14.90;99.90;;;;;;5023716;28;20456;-72
2022/06/10 03:20:33;;;;;;;37.67;8.40;;;14.80;99.90;;;;;;5013373;28;20061;-72
2022/06/10 03:23:16;;;;;;;32.13;7.82;;;14.90;99.90;;;;;;4988623;28;20129;-74
2022/06/10 03:25:57;;;;;;;34.70;7.43;;;14.80;99.90;;;;;;5010402;28;20108;-72
2022/06/10 03:28:48;;;;;;;26.15;7.32;;;14.80;99.90;;;;;;5000601;28;20025;-71
2022/06/10 03:31:46;;;;;;;31.98;8.30;;;14.70;99.90;;;;;;4983959;28;20277;-72
2022/06/10 03:34:22;;;;;;;34.75;8.27;;;14.70;99.90;;;;;;5009201;28;20124;-73
2022/06/10 03:36:49;;;;;;;34.38;8.55;;;14.70;99.90;;;;;;5007949;28;20064;-73
2022/06/10 03:39:18;;;;;;;34.83;7.18;;;14.70;99.90;;;;;;5020306;28;20025;-72
2022/06/10 03:42:05;;;;;;;30.13;8.98;;;14.70;99.90;;;;;;5013509;28;20040;-73
2022/06/10 03:44:32;;;;;;;37.70;9.15;;;14.70;99.90;;;;;;5010942;28;20033;-73
2022/06/10 03:46:58;;;;;;;33.90;8.90;;;14.70;99.90;;;;;;5000815;28;20037;-73
2022/06/10 03:49:33;;;;;;;29.60;8.27;;;14.80;99.90;;;;;;5016354;28;20033;-73
2022/06/10 03:52:00;;;;;;;38.60;9.10;;;14.80;99.90;;;;;;5009109;28;20350;-73
2022/06/10 03:54:26;;;;;;;33.70;7.82;;;14.80;99.90;;;;;;5019096;28;20337;-73
2022/06/10 03:56:52;;;;;;;44.60;8.80;;;14.80;99.90;;;;;;5009803;28;20503;-72
2022/06/10 03:59:19;;;;;;;39.65;8.10;;;14.90;99.90;;;;;;5009599;28;20057;-73
2022/06/10 04:01:44;;;;;;;29.83;7.78;;;14.80;99.90;;;;;;4994331;28;20120;-72
2022/06/10 04:04:10;;;;;;;28.08;8.32;;;14.80;99.90;;;;;;5008901;28;20394;-73
2022/06/10 04:06:36;;;;;;;33.83;10.02;;;14.90;99.90;;;;;;5011621;28;20058;-73
2022/06/10 04:09:02;;;;;;;43.10;11.07;;;14.90;99.90;;;;;;5011158;28;20033;-73
2022/06/10 04:11:27;;;;;;;37.80;11.25;;;14.90;99.90;;;;;;5010690;28;20805;-73
2022/06/10 04:13:53;;;;;;;33.17;8.82;;;15.00;99.90;;;;;;5026466;28;20028;-73
2022/06/10 04:16:19;;;;;;;25.70;8.60;;;15.00;99.90;;;;;;5010132;28;20607;-72
2022/06/10 04:18:44;;;;;;;22.48;7.53;;;15.00;99.90;;;;;;5020996;28;20105;-73
2022/06/10 04:21:10;;;;;;;31.88;8.45;;;15.00;99.90;;;;;;5035465;28;20143;-73
2022/06/10 04:23:35;;;;;;;35.20;7.53;;;15.10;99.90;;;;;;5022822;28;20029;-73
2022/06/10 04:26:01;;;;;;;27.58;7.68;;;15.10;99.90;;;;;;5015421;28;20104;-73
2022/06/10 04:28:28;;;;;;;32.88;7.88;;;15.10;99.90;;;;;;5031373;28;20041;-73
2022/06/10 04:30:55;;;;;;;26.63;7.30;;;15.10;99.90;;;;;;5020022;28;20106;-73
2022/06/10 04:33:21;;;;;;;27.73;7.15;;;15.20;99.90;;;;;;5025723;28;20040;-73
2022/06/10 04:35:50;;;;;;;22.52;7.22;;;15.20;99.90;;;;;;5009107;28;20571;-72
2022/06/10 04:38:18;;;;;;;30.27;7.55;;;15.30;99.90;;;;;;5011959;28;20029;-73
2022/06/10 04:40:46;;;;;;;23.52;7.38;;;15.30;99.90;;;;;;5032755;28;20033;-72
2022/06/10 04:43:12;;;;;;;20.95;5.95;;;15.30;99.90;;;;;;5021561;28;20036;-73
2022/06/10 04:45:44;;;;;;;33.55;7.80;;;15.30;99.90;;;;;;5025078;28;20036;-73
2022/06/10 04:48:11;;;;;;;24.05;7.18;;;15.40;99.90;;;;;;5024973;28;20388;-73
2022/06/10 04:50:37;;;;;;;24.30;6.55;;;15.40;99.90;;;;;;5017999;28;20025;-73
2022/06/10 04:53:03;;;;;;;26.15;7.20;;;15.40;99.90;;;;;;5009724;28;20045;-74
2022/06/10 04:55:29;;;;;;;22.30;6.70;;;15.40;99.90;;;;;;5027184;28;20372;-72
2022/06/10 04:57:56;;;;;;;23.13;7.38;;;15.40;99.90;;;;;;5033232;28;20523;-73
2022/06/10 05:00:29;;;;;;;23.48;7.68;;;15.50;99.90;;;;;;5015688;28;20543;-73
2022/06/10 05:02:55;;;;;;;28.40;6.50;;;15.50;99.90;;;;;;5009624;28;20033;-73
2022/06/10 05:05:21;;;;;;;25.75;6.35;;;15.40;99.90;;;;;;5003561;28;20099;-73
2022/06/10 05:07:47;;;;;;;24.67;7.40;;;15.40;99.90;;;;;;5006334;28;20449;-73
2022/06/10 05:10:15;;;;;;;24.13;5.82;;;15.50;99.90;;;;;;5010091;28;20029;-73
2022/06/10 05:12:41;;;;;;;20.75;6.38;;;15.50;99.90;;;;;;5019310;28;20037;-73
2022/06/10 05:15:07;;;;;;;27.10;6.63;;;15.50;99.90;;;;;;4989496;28;20030;-73
2022/06/10 05:17:33;;;;;;;17.95;6.30;;;15.50;99.90;;;;;;5026057;28;20048;-73
2022/06/10 05:19:59;;;;;;;18.85;7.30;;;15.60;99.90;;;;;;5017582;28;20045;-73
2022/06/10 05:22:24;;;;;;;27.83;6.90;;;15.60;99.90;;;;;;5024780;28;20558;-73
2022/06/10 05:24:50;;;;;;;16.45;6.82;;;15.80;99.90;;;;;;5012278;28;20021;-73
2022/06/10 05:27:16;;;;;;;19.15;6.35;;;15.90;99.90;;;;;;5023279;28;20028;-73
2022/06/10 05:29:41;;;;;;;25.58;6.68;;;16.00;99.90;;;;;;5019945;28;20036;-73
2022/06/10 05:32:07;;;;;;;21.05;6.00;;;16.10;99.90;;;;;;5033539;28;20285;-73
2022/06/10 05:34:46;;;;;;;24.30;6.00;;;16.30;99.90;;;;;;5022541;28;20032;-73
2022/06/10 05:37:25;;;;;;;22.13;6.70;;;16.40;99.90;;;;;;5002586;28;20037;-73
2022/06/10 05:39:52;;;;;;;19.85;5.88;;;16.60;99.90;;;;;;5034344;28;20025;-73
2022/06/10 05:42:18;;;;;;;16.60;5.93;;;16.60;99.90;;;;;;5023553;28;20083;-73
2022/06/10 05:44:47;;;;;;;17.40;6.13;;;16.60;99.90;;;;;;5029810;28;20099;-73
2022/06/10 05:47:20;;;;;;;16.20;6.20;;;16.70;99.90;;;;;;5026945;28;20086;-73
2022/06/10 05:49:49;;;;;;;27.35;7.28;;;16.60;99.90;;;;;;5015143;28;20026;-73
2022/06/10 05:52:16;;;;;;;19.98;6.35;;;16.80;99.90;;;;;;5017724;28;20485;-73
2022/06/10 05:54:46;;;;;;;13.68;5.72;;;16.80;99.90;;;;;;5016217;28;20041;-73
2022/06/10 05:57:13;;;;;;;19.67;6.07;;;16.90;99.90;;;;;;5032839;28;20072;-73
2022/06/10 05:59:39;;;;;;;19.35;5.78;;;16.90;99.90;;;;;;5021896;28;20080;-73
2022/06/10 06:02:08;;;;;;;15.32;5.93;;;16.90;99.90;;;;;;5012092;28;20034;-73
2022/06/10 06:04:34;;;;;;;21.67;6.07;;;17.00;99.90;;;;;;5016817;28;20029;-73
2022/06/10 06:07:00;;;;;;;14.32;4.65;;;17.10;99.90;;;;;;5026468;28;20087;-73
2022/06/10 06:09:29;;;;;;;21.05;5.90;;;17.10;99.90;;;;;;5016598;28;20034;-73
2022/06/10 06:11:56;;;;;;;20.90;5.97;;;17.10;99.90;;;;;;5024729;28;20423;-74
2022/06/10 06:14:26;;;;;;;16.10;5.50;;;17.00;99.90;;;;;;5015402;28;20053;-74
2022/06/10 06:16:57;;;;;;;18.73;4.75;;;16.90;99.90;;;;;;5016192;28;20504;-73
2022/06/10 06:19:23;;;;;;;17.95;4.50;;;16.80;99.90;;;;;;5024279;28;20620;-73
2022/06/10 06:21:49;;;;;;;20.27;4.45;;;16.70;99.90;;;;;;5021976;28;20035;-73
2022/06/10 06:24:15;;;;;;;12.82;3.90;;;16.50;99.90;;;;;;5022370;28;20037;-73
2022/06/10 06:26:41;;;;;;;21.08;5.40;;;16.40;99.90;;;;;;5015460;28;20470;-73
2022/06/10 06:29:07;;;;;;;14.30;4.13;;;16.40;99.90;;;;;;5012695;28;20075;-72
2022/06/10 06:31:33;;;;;;;11.88;4.20;;;16.40;99.90;;;;;;5019751;28;20120;-73
2022/06/10 06:33:58;;;;;;;11.65;4.70;;;16.40;99.90;;;;;;5022125;28;20049;-73
2022/06/10 06:36:27;;;;;;;14.65;3.80;;;16.50;99.90;;;;;;5026396;28;20080;-73
2022/06/10 06:38:53;;;;;;;9.75;3.50;;;16.80;99.90;;;;;;5019320;28;20044;-73
2022/06/10 06:41:21;;;;;;;11.70;4.07;;;17.00;99.90;;;;;;5016825;28;20135;-73
2022/06/10 06:43:47;;;;;;;10.35;3.50;;;17.20;99.90;;;;;;5013308;28;20195;-73
2022/06/10 06:46:14;;;;;;;8.95;3.15;;;17.40;99.90;;;;;;5019409;28;20245;-73
2022/06/10 06:48:41;;;;;;;8.30;3.00;;;17.40;99.90;;;;;;5004279;28;20025;-73
2022/06/10 06:51:07;;;;;;;8.90;3.22;;;17.50;99.90;;;;;;5009033;28;20489;-74
2022/06/10 06:53:33;;;;;;;9.52;2.78;;;17.50;99.90;;;;;;4999557;28;20044;-73
2022/06/10 06:56:01;;;;;;;7.63;3.28;;;17.50;99.90;;;;;;4997100;28;20080;-73
2022/06/10 06:58:27;;;;;;;10.82;2.78;;;17.60;99.90;;;;;;4997808;28;20022;-73
2022/06/10 07:00:53;;;;;;;7.60;4.32;;;17.80;99.90;;;;;;5000237;28;20496;-72
2022/06/10 07:03:19;;;;;;;7.13;3.50;;;17.80;99.90;;;;;;4997049;28;20037;-74
2022/06/10 07:05:45;;;;;;;11.77;4.20;;;18.00;99.90;;;;;;4995401;28;20075;-73
2022/06/10 07:08:11;;;;;;;11.10;3.85;;;18.40;99.90;;;;;;4993322;28;20042;-74
2022/06/10 07:10:37;;;;;;;10.55;3.10;;;18.90;99.90;;;;;;5011918;28;20097;-73
2022/06/10 07:13:02;;;;;;;9.13;3.03;;;19.40;99.90;;;;;;5030452;28;20395;-73
2022/06/10 07:15:28;;;;;;;9.10;3.28;;;19.70;99.90;;;;;;5018001;28;20029;-73
2022/06/10 07:17:54;;;;;;;8.90;3.40;;;20.20;99.90;;;;;;5019615;28;20041;-73
2022/06/10 07:20:29;;;;;;;10.77;3.53;;;20.00;99.90;;;;;;5015871;28;20491;-73
2022/06/10 07:22:56;;;;;;;10.20;3.22;;;19.50;99.90;;;;;;5020901;28;20033;-73
2022/06/10 07:25:22;;;;;;;9.18;3.75;;;19.20;99.90;;;;;;5003083;28;20033;-73
2022/06/10 07:27:48;;;;;;;12.80;4.03;;;19.30;99.90;;;;;;4991134;28;20056;-74
2022/06/10 07:30:16;;;;;;;9.93;3.30;;;19.50;99.90;;;;;;5000510;28;20036;-74
2022/06/10 07:32:46;;;;;;;10.25;3.85;;;20.40;99.90;;;;;;5018027;28;20123;-74
2022/06/10 07:35:13;;;;;;;11.75;4.18;;;20.60;99.90;;;;;;5010958;28;20052;-74
2022/06/10 07:37:39;;;;;;;8.48;2.67;;;23.60;99.90;;;;;;5008392;28;20063;-74
2022/06/10 07:40:06;;;;;;;11.52;3.25;;;25.50;99.90;;;;;;5001695;28;20135;-75
2022/06/10 07:42:34;;;;;;;13.20;3.30;;;25.80;99.90;;;;;;5004178;28;20030;-74
2022/06/10 07:45:02;;;;;;;14.73;3.03;;;25.10;99.90;;;;;;5000538;28;20538;-74
2022/06/10 07:47:28;;;;;;;12.02;3.45;;;24.80;99.90;;;;;;4999589;28;20438;-75
2022/06/10 07:49:53;;;;;;;12.18;3.03;;;23.10;99.90;;;;;;4999598;28;20029;-75
2022/06/10 07:52:19;;;;;;;12.18;3.72;;;21.80;99.90;;;;;;5004585;28;20401;-75
2022/06/10 07:54:44;;;;;;;12.63;3.78;;;22.30;99.90;;;;;;5007671;28;20030;-74
2022/06/10 07:57:13;;;;;;;12.20;3.35;;;24.90;99.90;;;;;;5010554;28;20045;-74
2022/06/10 07:59:42;;;;;;;12.25;3.10;;;28.00;93.70;;;;;;5010273;28;20042;-71
2022/06/10 08:02:09;;;;;;;11.60;3.55;;;29.00;74.30;;;;;;5001565;28;20040;-75
2022/06/10 08:04:34;;;;;;;11.27;3.17;;;28.00;74.60;;;;;;5002739;28;20152;-73
2022/06/10 08:07:00;;;;;;;7.57;2.80;;;29.30;75.30;;;;;;5004704;28;20523;-71
2022/06/10 08:09:26;;;;;;;12.77;3.20;;;31.40;60.30;;;;;;4997643;28;20444;-74
2022/06/10 08:11:52;;;;;;;9.85;2.45;;;33.60;59.00;;;;;;4998380;28;20026;-72
2022/06/10 08:14:18;;;;;;;11.00;3.05;;;33.90;48.70;;;;;;5006566;28;20056;-73
2022/06/10 08:16:44;;;;;;;10.48;3.28;;;32.50;46.10;;;;;;4996819;28;20278;-71
2022/06/10 08:19:10;;;;;;;13.73;3.30;;;31.30;52.50;;;;;;4994041;28;20025;-71
2022/06/10 08:24:21;;;;;;;9.10;2.90;;;31.50;60.80;;;;;;5028097;28;20036;-71
2022/06/10 08:26:48;;;;;;;8.00;2.97;;;33.70;49.60;;;;;;5006891;28;20042;-71
2022/06/10 08:29:14;;;;;;;8.55;3.28;;;34.20;45.10;;;;;;5012326;28;20075;-72
2022/06/10 08:31:40;;;;;;;14.13;2.90;;;35.00;44.70;;;;;;5009814;28;20022;-72
2022/06/10 08:34:05;;;;;;;13.27;3.40;;;36.10;43.80;;;;;;5007284;28;20036;-72
2022/06/10 08:36:33;;;;;;;10.07;2.78;;;36.30;41.90;;;;;;5017322;28;20056;-72
2022/06/10 08:39:00;;;;;;;12.23;2.60;;;36.80;42.30;;;;;;5024990;28;20056;-74
2022/06/10 08:41:47;;;;;;;13.52;3.63;;;35.70;43.50;;;;;;5024098;28;20030;-74
2022/06/10 08:44:26;;;;;;;10.98;3.17;;;34.20;44.40;;;;;;5018488;28;20024;-72
2022/06/10 08:47:11;;;;;;;11.85;3.25;;;34.60;47.80;;;;;;5040841;28;20047;-71
2022/06/10 08:50:14;;;;;;;13.40;3.90;;;33.40;44.60;;;;;;5024089;28;20026;-72
2022/06/10 08:52:51;;;;;;;11.55;3.50;;;33.00;47.80;;;;;;5012040;28;20239;-73
2022/06/10 08:55:40;;;;;;;11.90;3.33;;;32.50;45.40;;;;;;5008382;28;21106;-72
2022/06/10 08:58:14;;;;;;;11.80;3.30;;;31.80;48.70;;;;;;5014896;28;20304;-71
2022/06/10 09:00:41;;;;;;;12.57;3.17;;;33.40;48.00;;;;;;5007378;28;20053;-71
2022/06/10 09:03:29;;;;;;;7.28;2.50;;;33.80;43.50;;;;;;5006609;28;20504;-74
2022/06/10 09:06:00;;;;;;;11.13;3.20;;;34.70;46.40;;;;;;5012698;28;20022;-75
2022/06/10 09:08:38;;;;;;;10.18;3.13;;;34.60;42.90;;;;;;5026338;28;20057;-75
2022/06/10 09:11:35;;;;;;;12.40;3.58;;;34.30;40.80;;;;;;5012282;28;20037;-74
2022/06/10 09:14:19;;;;;;;11.57;3.35;;;34.60;42.20;;;;;;5022055;28;20056;-75
2022/06/10 09:17:13;;;;;;;15.18;3.63;;;35.00;43.70;;;;;;5000477;28;20076;-75
2022/06/10 09:19:55;;;;;;;11.45;3.40;;;35.30;43.20;;;;;;5014186;28;20037;-75
2022/06/10 09:22:39;;;;;;;11.98;2.85;;;35.40;40.00;;;;;;5014574;28;20040;-75
2022/06/10 09:25:14;;;;;;;11.32;3.30;;;35.50;40.90;;;;;;5001656;28;20025;-77
2022/06/10 09:27:44;;;;;;;11.07;2.75;;;34.80;38.80;;;;;;5009900;28;20025;-75
2022/06/10 09:30:13;;;;;;;15.75;3.65;;;33.00;40.90;;;;;;4993184;28;21099;-76
2022/06/10 09:33:04;;;;;;;10.70;3.25;;;32.60;46.00;;;;;;5007853;28;20152;-74
2022/06/10 09:35:46;;;;;;;13.57;3.20;;;33.10;48.30;;;;;;5017534;28;20025;-75
2022/06/10 09:38:25;;;;;;;13.82;3.63;;;33.00;44.50;;;;;;5016050;28;20028;-75
2022/06/10 09:41:14;;;;;;;13.25;2.95;;;33.30;47.10;;;;;;5011179;28;20496;-75
2022/06/10 09:43:45;;;;;;;9.73;3.22;;;31.90;45.50;;;;;;5022521;28;20033;-75
2022/06/10 09:46:20;;;;;;;14.23;3.65;;;31.20;49.00;;;;;;5018321;28;20452;-75
2022/06/10 09:48:58;;;;;;;13.10;3.42;;;30.40;53.50;;;;;;5026229;28;20111;-73
2022/06/10 09:51:37;;;;;;;13.45;3.35;;;30.60;50.00;;;;;;5029914;28;20039;-77
2022/06/10 09:54:12;;;;;;;11.20;3.33;;;30.60;47.70;;;;;;5008910;28;20095;-75
2022/06/10 09:57:06;;;;;;;12.27;3.42;;;30.50;52.00;;;;;;5025080;28;20073;-75
2022/06/10 09:59:42;;;;;;;14.95;3.97;;;31.00;50.50;;;;;;4680516;28;9999811;-75
2022/06/10 10:02:36;;;;;;;11.05;3.47;;;30.80;53.50;;;;;;4998544;28;20038;-72
2022/06/10 10:05:09;;;;;;;13.20;3.60;;;30.70;52.90;;;;;;5012595;28;20524;-75
2022/06/10 10:08:12;;;;;;;15.30;4.00;;;30.60;52.70;;;;;;5015793;28;20379;-74
2022/06/10 10:10:44;;;;;;;14.30;3.78;;;31.20;51.10;;;;;;4996976;28;20056;-74
2022/06/10 10:13:22;;;;;;;12.90;3.42;;;30.90;54.60;;;;;;4998734;28;20086;-75
2022/06/10 10:16:24;;;;;;;11.93;3.00;;;31.50;54.20;;;;;;4999428;28;21200;-74
2022/06/10 10:19:20;;;;;;;11.88;3.30;;;31.80;49.90;;;;;;5010735;28;20037;-74
2022/06/10 10:22:14;;;;;;;12.07;3.90;;;31.20;46.30;;;;;;5008208;28;20032;-73
2022/06/10 10:24:42;;;;;;;17.30;3.95;;;30.90;53.00;;;;;;4654798;28;9999729;-75
2022/06/10 10:27:20;;;;;;;11.35;4.00;;;30.60;52.20;;;;;;4999907;28;20036;-76
2022/06/10 10:29:51;;;;;;;13.85;3.33;;;29.80;50.00;;;;;;4997670;28;20048;-78
2022/06/10 10:32:22;;;;;;;12.60;3.63;;;30.80;54.90;;;;;;5003138;28;20034;-76
2022/06/10 10:34:53;;;;;;;13.20;3.40;;;30.60;52.50;;;;;;4999839;28;20033;-77
2022/06/10 10:37:19;;;;;;;11.05;3.03;;;29.90;53.00;;;;;;5011857;28;20041;-78
2022/06/10 10:40:01;;;;;;;11.57;3.60;;;29.90;64.80;;;;;;5025889;28;20051;-75
2022/06/10 10:42:33;;;;;;;12.30;3.03;;;30.20;54.00;;;;;;5019323;28;20557;-76
2022/06/10 10:45:04;;;;;;;13.68;4.13;;;29.10;53.50;;;;;;5022118;28;20029;-75
2022/06/10 10:47:31;;;;;;;12.68;3.72;;;28.40;64.50;;;;;;5030358;28;20033;-74
2022/06/10 10:50:03;;;;;;;15.85;4.20;;;28.30;65.40;;;;;;5029135;28;20034;-72
2022/06/10 10:52:36;;;;;;;17.02;4.15;;;27.80;62.40;;;;;;5017735;28;20481;-75
2022/06/10 10:55:11;;;;;;;16.63;4.10;;;28.40;79.20;;;;;;5024280;28;20030;-74
2022/06/10 10:57:41;;;;;;;13.02;3.78;;;28.40;62.00;;;;;;5020426;28;20115;-73
2022/06/10 11:00:34;;;;;;;13.48;3.78;;;28.40;64.80;;;;;;5026222;28;20041;-75
2022/06/10 11:03:03;;;;;;;15.32;4.18;;;28.30;60.80;;;;;;5025615;28;20448;-72
2022/06/10 11:05:32;;;;;;;15.95;3.08;;;27.60;65.30;;;;;;5013612;28;20326;-73
2022/06/10 11:08:16;;;;;;;14.40;3.67;;;27.10;73.00;;;;;;5009076;28;20029;-72
2022/06/10 11:11:02;;;;;;;12.55;3.70;;;27.00;75.20;;;;;;5015577;28;20063;-73
2022/06/10 11:13:41;;;;;;;13.85;3.40;;;27.00;74.60;;;;;;5001980;28;20191;-72
2022/06/10 11:16:29;;;;;;;11.45;3.38;;;27.60;80.60;;;;;;4993196;28;20917;-73
2022/06/10 11:19:10;;;;;;;15.35;3.72;;;28.60;66.90;;;;;;5001792;28;20121;-74
2022/06/10 11:21:49;;;;;;;12.68;3.75;;;28.60;61.40;;;;;;5004943;28;20128;-72
2022/06/10 11:24:17;;;;;;;16.48;3.97;;;27.40;71.60;;;;;;4990431;28;20493;-74
2022/06/10 11:26:53;;;;;;;15.95;4.05;;;26.90;75.20;;;;;;5000623;28;20033;-72
2022/06/10 11:29:20;;;;;;;15.75;3.67;;;26.60;74.90;;;;;;4974600;28;20026;-73
2022/06/10 11:31:55;;;;;;;21.50;4.53;;;26.50;89.80;;;;;;4981508;28;20050;-72
2022/06/10 11:34:35;;;;;;;15.05;4.10;;;26.20;87.70;;;;;;4993100;28;20084;-73
2022/06/10 11:37:16;;;;;;;21.25;4.53;;;25.40;91.40;;;;;;4999817;28;20136;-74
2022/06/10 11:39:56;;;;;;;16.83;3.75;;;25.60;92.00;;;;;;5008054;28;20022;-75
2022/06/10 11:42:28;;;;;;;14.37;4.03;;;25.30;91.10;;;;;;5016796;28;20270;-74
2022/06/10 11:45:07;;;;;;;16.33;4.07;;;25.20;92.30;;;;;;5013269;28;20275;-72
2022/06/10 11:47:45;;;;;;;16.55;4.35;;;25.40;87.30;;;;;;5010838;28;20033;-72
2022/06/10 11:50:19;;;;;;;18.13;4.03;;;24.90;90.30;;;;;;5015011;28;20114;-73
2022/06/10 11:52:53;;;;;;;21.70;5.07;;;24.60;91.00;;;;;;5008097;28;20034;-73
2022/06/10 11:55:22;;;;;;;17.08;4.25;;;24.70;93.70;;;;;;5002732;28;20053;-73
2022/06/10 12:01:25;;;;;;;18.65;3.90;;;25.00;95.40;;;;;;5010416;28;20084;-73
2022/06/10 12:04:00;;;;;;;15.40;3.35;;;24.40;96.70;;;;;;5005560;28;20566;-73
2022/06/10 12:06:51;;;;;;;17.95;4.20;;;24.00;93.70;;;;;;5014926;28;20044;-74
2022/06/10 12:09:26;;;;;;;13.40;3.95;;;23.50;97.20;;;;;;4999113;28;20409;-75
2022/06/10 12:11:58;;;;;;;19.77;4.35;;;23.20;98.20;;;;;;5007494;28;20065;-75
2022/06/10 12:14:27;;;;;;;22.00;4.75;;;23.70;99.90;;;;;;5008856;28;20103;-76
2022/06/10 12:16:59;;;;;;;17.48;4.30;;;24.10;99.80;;;;;;5010631;28;20041;-75
2022/06/10 12:19:39;;;;;;;14.15;3.50;;;24.30;99.90;;;;;;5016341;28;20034;-73
2022/06/10 12:22:05;;;;;;;18.95;4.70;;;24.50;97.80;;;;;;4674424;28;10000296;-74
2022/06/10 12:24:31;;;;;;;14.20;3.85;;;24.40;96.40;;;;;;5010795;28;20029;-73
2022/06/10 12:26:59;;;;;;;22.65;4.15;;;24.00;98.70;;;;;;5034665;28;20068;-72
2022/06/10 12:29:51;;;;;;;22.55;4.35;;;24.40;99.90;;;;;;5013770;28;20104;-72
2022/06/10 12:32:39;;;;;;;14.05;3.83;;;24.80;98.50;;;;;;5023674;28;20621;-74
2022/06/10 12:35:28;;;;;;;19.88;4.03;;;24.50;90.30;;;;;;5008678;28;20024;-75
2022/06/10 12:38:42;;;;;;;24.40;6.00;;;24.40;97.40;;;;;;5007963;28;20048;-75
2022/06/10 12:41:15;;;;;;;19.85;4.45;;;24.80;95.30;;;;;;4999287;28;20513;-74
2022/06/10 12:43:46;;;;;;;21.85;4.80;;;24.50;91.00;;;;;;5009747;28;20048;-77
2022/06/10 12:46:51;;;;;;;19.05;4.32;;;24.60;95.60;;;;;;5015093;28;20029;-75
2022/06/10 12:49:43;;;;;;;17.67;3.80;;;24.80;96.10;;;;;;5013523;28;20029;-76
2022/06/10 12:52:27;;;;;;;;;;;24.90;90.30;;;;;;5015396;28;20164;-75
2022/06/10 12:54:59;;;;;;;17.15;4.25;;;25.10;98.10;;;;;;5013094;28;19913;-74
2022/06/10 12:57:40;;;;;;;16.38;4.30;;;25.50;94.80;;;;;;5017680;28;20037;-76
2022/06/10 13:00:17;;;;;;;15.15;4.00;;;25.40;96.50;;;;;;5012173;28;20087;-75
2022/06/10 13:02:55;;;;;;;24.70;4.72;;;25.50;92.20;;;;;;5007919;28;20041;-75
2022/06/10 13:05:31;;;;;;;18.90;4.75;;;25.30;92.20;;;;;;5012403;28;20024;-75
2022/06/10 13:07:58;;;;;;;14.88;3.92;;;25.30;92.60;;;;;;5013330;28;20036;-76
2022/06/10 13:10:35;;;;;;;16.88;3.88;;;24.90;90.60;;;;;;5009451;28;20108;-76
2022/06/10 13:13:21;;;;;;;14.85;3.53;;;24.70;95.30;;;;;;5008564;28;20037;-77
2022/06/10 13:15:47;;;;;;;14.38;3.95;;;24.30;92.00;;;;;;5013872;28;20026;-75
2022/06/10 13:18:15;;;;;;;15.30;4.22;;;23.40;90.80;;;;;;5011688;28;20029;-77